Main page
METAR-TAF:

METAR-TAF

Airports :

Uherské Hradiště, Czech Republic

Kunovice Airport

latitude: 49-01-46N, longitude: 017-26-23E, elevation: 177 m

Current weather observation

The report was made 8 hours and 39 minutes ago, at 14:00 UTC
Wind 7 kt from the East, varying between Northeast and Southeast
Temperature 22°C
Humidity 50%
Pressure 1014 hPa
Visibility 10 km or more
Few clouds at a height of 4300 ft, Cumulonimbus.
Scattered clouds at a height of 4600 ft
thunderstorm

METAR: LKKU 231400Z 09007KT 040V130 9999 TS FEW043CB SCT046 22/11 Q1014

Time: 00:39 (22:39 UTC)


TAF: missing

Weather observations and forecasts of more than 4000 airports (METAR and TAF reports).

The available stations are represented by yellow and red dots on the map.

Hover mouse over dot to see the name of the station.

Then click to see weather observations and forecasts.

To change the map : click on the green buttons with a black cross to zoom in, on the green button with a dash to zoom out, or on the green arrows for adjacent maps.


METAR-TAF: